Cle Elum, WA (98922)

4:00 PM PST on February 06, 2016 (GMT -0800)
Cle Elum-Roslyn High School | | Change Station
CLOSE
Current Station
Personal Weather Station
Location: Cle Elum, WA
Elevation: 2107 ft
Nearby Weather Stations

Elev 2107 ft 47.20 °N, 120.97 °W | Updated 13 minutes ago

Partly Cloudy
Partly Cloudy
41.5 °F
Feels Like 42 °F
N
3.0
Wind Variable Wind from North

Today
High -- | Low -- °F
--% Chance of Precip.
Yesterday
High -- | Low -- °F
Precip. -- in
Pressure 30.45 in
Visibility 10.0 miles
Clouds Clear
Windchill 42 °F
Dew Point 30 °F
Humidity 65%
Rainfall 0.11 in
Snow Depth Not available.
7:22 AM 5:13 PM
Waning Crescent, 3% visible
METAR KELN 062353Z AUTO 32007KT 10SM CLR 05/M01 A3041 RMK AO2 SLP309 T00501011 10072 20050 53005
Pressure 30.45 in
Visibility 10.0 miles
Clouds Clear
Windchill 42 °F
Dew Point 30 °F
Humidity 65%
Rainfall 0.11 in
Snow Depth Not available.
7:22 AM 5:13 PM
Waning Crescent, 3% visible
METAR KELN 062353Z AUTO 32007KT 10SM CLR 05/M01 A3041 RMK AO2 SLP309 T00501011 10072 20050 53005

10-Day Weather Forecast

Almanac

Astronomy

Feb. 06, 2016 Rise Set
Actual Time
Civil Twilight
Nautical Twilight
Astronomical Twilight
Moon
Length of Visible Light
Length of Day
Tomorrow will be .
, % of the Moon is Illuminated

Today's Extremes

State Highs State Lows

Community

WunderPhotos

Upload Photos

1,891,098 photos uploaded!

WunderBlog® & News

Nearby

Air Quality

  Air Quality AQ Index Pollutant
Not available.

Snow Depth

Station Depth Elevation

Earthquake Activity

City Distance Mag. Time & Date
Minimum magnitude displayed is 2.5.

Coastal Water Temperatures

Place Temperature

Stations

Nearby Weather Stations

Station Location Temp. Windchill Dew Point Humidity Wind Precip. Elev Updated Type
                   

Watches & Warnings

There are currently no watches in effect.